Time;durP1;ratioP1;P1;durP2;ratioP2;P2;SDS_P1;SDS_P2;PMS_P1;PMS_P2;Temp;Humidity;BMP_temperature;BMP_pressure;BME280_temperature;BME280_humidity;BME280_pressure;Samples;Min_cycle;Max_cycle;Signal;HPM_P1;HPM_P2
2021/12/23 00:01:04;;;;;;;22.10;12.73;;;;;;;-1.07;100.00;101819.34;4998020;28;20133;-80
2021/12/23 00:03:33;;;;;;;23.52;12.13;;;;;;;-1.09;100.00;101805.22;5000567;28;20046;-80
2021/12/23 00:06:02;;;;;;;22.67;12.27;;;;;;;-1.08;100.00;101809.59;5001022;28;20042;-80
2021/12/23 00:08:29;;;;;;;21.60;11.35;;;;;;;-1.07;100.00;101813.97;5000630;28;20061;-81
2021/12/23 00:10:57;;;;;;;26.65;12.77;;;;;;;-1.05;100.00;101811.94;5000439;28;20061;-79
2021/12/23 00:13:26;;;;;;;23.40;12.85;;;;;;;-1.05;100.00;101811.09;4998866;28;20065;-80
2021/12/23 00:23:52;;;;;;;22.08;12.02;;;;;;;-0.84;100.00;101803.31;5000104;28;20062;-79
2021/12/23 00:26:20;;;;;;;27.33;13.05;;;;;;;-0.87;100.00;101792.91;5000158;28;20401;-80
2021/12/23 00:28:47;;;;;;;20.23;11.88;;;;;;;-0.88;100.00;101795.78;5000296;28;20091;-78
2021/12/23 00:31:16;;;;;;;22.48;13.32;;;;;;;-0.78;100.00;101796.38;4999788;28;20050;-78
2021/12/23 00:33:44;;;;;;;32.05;14.75;;;;;;;-0.74;100.00;101791.53;5000331;28;20061;-79
2021/12/23 00:36:13;;;;;;;25.02;14.27;;;;;;;-0.79;100.00;101793.91;4999364;28;20053;-78
2021/12/23 00:38:54;;;;;;;30.88;15.32;;;;;;;-0.83;100.00;101790.72;4998967;28;20050;-78
2021/12/23 00:41:24;;;;;;;29.20;13.80;;;;;;;-0.83;100.00;101793.41;4998768;28;20539;-78
2021/12/23 00:43:51;;;;;;;30.67;15.52;;;;;;;-0.89;100.00;101789.56;4999053;28;20053;-78
2021/12/23 00:46:19;;;;;;;30.02;16.10;;;;;;;-0.92;100.00;101784.53;4998951;28;20065;-79
2021/12/23 00:48:47;;;;;;;31.55;16.08;;;;;;;-1.00;100.00;101788.09;4999952;28;20122;-80
2021/12/23 00:51:15;;;;;;;37.50;16.60;;;;;;;-1.07;100.00;101776.38;5001473;28;20050;-79
2021/12/23 00:53:45;;;;;;;38.47;17.05;;;;;;;-1.16;100.00;101777.38;5001319;28;20046;-80
2021/12/23 00:56:13;;;;;;;32.45;18.05;;;;;;;-1.17;100.00;101773.84;5014166;28;20201;-79
2021/12/23 00:58:41;;;;;;;37.80;18.35;;;;;;;-1.20;100.00;101782.25;5007237;28;20050;-79
2021/12/23 01:01:09;;;;;;;30.45;17.20;;;;;;;-1.24;100.00;101780.91;5019369;28;20060;-79
2021/12/23 01:03:38;;;;;;;35.08;17.95;;;;;;;-1.28;100.00;101780.44;5012665;28;20049;-79
2021/12/23 01:06:06;;;;;;;36.55;17.75;;;;;;;-1.30;100.00;101777.09;5018865;28;20053;-79
2021/12/23 01:08:33;;;;;;;43.45;18.10;;;;;;;-1.21;100.00;101769.84;5019837;28;20050;-79
2021/12/23 01:11:01;;;;;;;33.65;18.73;;;;;;;-1.05;100.00;101770.78;5018962;28;20527;-79
2021/12/23 01:13:29;;;;;;;32.53;18.52;;;;;;;-1.08;100.00;101780.03;5015918;28;20045;-79
2021/12/23 01:16:01;;;;;;;35.85;18.90;;;;;;;-1.15;100.00;101787.97;5016903;28;20485;-79
2021/12/23 01:18:38;;;;;;;33.78;18.02;;;;;;;-1.21;100.00;101780.59;5016069;28;20500;-79
2021/12/23 01:21:18;;;;;;;35.60;18.27;;;;;;;-1.23;100.00;101788.81;5016941;28;20404;-79
2021/12/23 01:23:50;;;;;;;38.85;18.17;;;;;;;-1.25;100.00;101781.94;5015692;28;20420;-79
2021/12/23 01:26:22;;;;;;;33.00;18.38;;;;;;;-1.31;100.00;101785.31;5001835;28;20047;-79
2021/12/23 01:28:56;;;;;;;35.78;19.52;;;;;;;-1.32;100.00;101783.63;4994831;28;20519;-79
2021/12/23 01:31:26;;;;;;;38.63;20.02;;;;;;;-1.45;100.00;101785.00;5000921;28;20405;-79
2021/12/23 01:33:55;;;;;;;36.45;21.05;;;;;;;-1.55;100.00;101784.31;4996639;28;20045;-78
2021/12/23 01:36:24;;;;;;;38.50;20.63;;;;;;;-1.70;100.00;101785.03;4996605;28;20034;-79
2021/12/23 01:38:53;;;;;;;39.67;20.98;;;;;;;-1.86;100.00;101775.09;4997536;28;20391;-79
2021/12/23 01:41:23;;;;;;;33.22;20.05;;;;;;;-1.86;100.00;101787.69;4997197;28;20366;-79
2021/12/23 01:43:52;;;;;;;38.70;21.42;;;;;;;-2.02;100.00;101775.94;4997316;28;20046;-80
2021/12/23 01:46:22;;;;;;;42.90;22.60;;;;;;;-2.23;100.00;101774.59;4996072;28;20501;-79
2021/12/23 01:48:52;;;;;;;39.53;22.52;;;;;;;-2.30;100.00;101773.53;4996628;28;20393;-79
2021/12/23 01:51:23;;;;;;;42.45;23.88;;;;;;;-2.31;100.00;101771.88;4996676;28;20058;-80
2021/12/23 01:53:51;;;;;;;40.35;22.00;;;;;;;-2.36;100.00;101763.47;4984342;28;20055;-79
2021/12/23 01:56:19;;;;;;;43.30;22.70;;;;;;;-2.42;100.00;101773.03;4996318;28;20058;-79
2021/12/23 01:58:47;;;;;;;40.38;22.45;;;;;;;-2.43;100.00;101766.00;4996471;28;20050;-79
2021/12/23 02:01:15;;;;;;;41.53;23.65;;;;;;;-2.54;100.00;101758.25;4996494;28;20057;-79
2021/12/23 02:03:43;;;;;;;38.58;23.27;;;;;;;-2.61;100.00;101764.25;4996019;28;20058;-79
2021/12/23 02:06:12;;;;;;;37.53;22.58;;;;;;;-2.70;100.00;101766.06;4996046;28;20042;-79
2021/12/23 02:08:40;;;;;;;39.58;22.45;;;;;;;-2.73;100.00;101769.06;4996005;28;20047;-80
2021/12/23 02:11:10;;;;;;;39.40;22.05;;;;;;;-2.72;100.00;101770.78;4996339;28;20042;-79
2021/12/23 02:13:39;;;;;;;37.15;21.92;;;;;;;-2.86;100.00;101763.34;4996351;28;20042;-79
2021/12/23 02:16:07;;;;;;;39.13;22.42;;;;;;;-2.91;100.00;101762.97;4990860;28;20054;-79
2021/12/23 02:18:36;;;;;;;37.47;22.25;;;;;;;-2.94;100.00;101753.41;4986770;28;20054;-78
2021/12/23 02:21:05;;;;;;;38.50;22.13;;;;;;;-2.88;100.00;101754.63;4996035;28;20039;-78
2021/12/23 02:23:34;;;;;;;35.95;20.63;;;;;;;-2.81;100.00;101752.97;4995423;28;20532;-79
2021/12/23 02:26:02;;;;;;;35.42;21.45;;;;;;;-2.81;100.00;101752.97;4995640;28;20047;-79
2021/12/23 02:28:30;;;;;;;37.10;21.67;;;;;;;-2.75;100.00;101755.00;4995910;28;20057;-79
2021/12/23 02:30:58;;;;;;;37.28;21.77;;;;;;;-2.82;100.00;101751.28;4995054;28;20178;-79
2021/12/23 02:33:28;;;;;;;38.08;22.17;;;;;;;-2.77;100.00;101751.66;4995469;28;20531;-79
2021/12/23 02:35:58;;;;;;;38.08;22.48;;;;;;;-2.84;100.00;101745.25;4995948;28;20057;-78
2021/12/23 02:38:27;;;;;;;36.35;21.40;;;;;;;-2.81;100.00;101747.63;4993650;28;20058;-79
2021/12/23 02:40:55;;;;;;;36.85;20.52;;;;;;;-2.85;100.00;101740.88;4995706;28;20390;-78
2021/12/23 02:43:31;;;;;;;34.08;20.23;;;;;;;-2.81;100.00;101726.19;5000785;28;20539;-79
2021/12/23 02:45:59;;;;;;;35.15;20.13;;;;;;;-2.84;100.00;101727.34;5009977;28;20050;-79
2021/12/23 02:48:37;;;;;;;36.67;21.45;;;;;;;-2.92;100.00;101734.50;5008019;28;20520;-79
2021/12/23 02:51:08;;;;;;;36.90;21.65;;;;;;;-2.96;100.00;101725.97;4976012;28;20050;-79
2021/12/23 02:53:40;;;;;;;36.65;21.80;;;;;;;-2.95;100.00;101732.16;4989307;28;20054;-79
2021/12/23 02:56:14;;;;;;;34.72;21.42;;;;;;;-2.94;100.00;101726.63;4994531;28;20054;-79
2021/12/23 02:58:44;;;;;;;33.65;21.08;;;;;;;-2.91;100.00;101733.50;5007923;28;20065;-79
2021/12/23 03:01:14;;;;;;;34.58;20.20;;;;;;;-2.89;100.00;101729.66;4998863;28;20050;-79
2021/12/23 03:03:43;;;;;;;37.67;21.67;;;;;;;-2.90;100.00;101721.78;5013824;28;20050;-79
2021/12/23 03:06:12;;;;;;;35.75;19.67;;;;;;;-2.93;100.00;101722.13;5014389;28;20046;-79
2021/12/23 03:08:47;;;;;;;38.78;20.48;;;;;;;-2.99;100.00;101708.38;5007823;28;20065;-79
2021/12/23 03:11:19;;;;;;;37.97;21.80;;;;;;;-2.92;100.00;101719.28;4995294;28;20058;-79
2021/12/23 03:13:48;;;;;;;34.90;20.80;;;;;;;-2.94;100.00;101710.56;5001072;28;20053;-79
2021/12/23 03:16:23;;;;;;;39.05;21.92;;;;;;;-3.06;100.00;101712.69;5007891;28;20057;-79
2021/12/23 03:18:51;;;;;;;37.53;21.67;;;;;;;-3.15;100.00;101708.28;5008024;28;20413;-79
2021/12/23 03:21:19;;;;;;;40.45;22.05;;;;;;;-3.16;100.00;101711.97;5004652;28;20045;-80
2021/12/23 03:23:47;;;;;;;40.05;22.52;;;;;;;-3.21;100.00;101708.94;4994426;28;20057;-79
2021/12/23 03:26:15;;;;;;;37.83;22.45;;;;;;;-3.14;100.00;101712.66;5005995;28;20531;-79
2021/12/23 03:28:43;;;;;;;39.45;20.77;;;;;;;-3.06;100.00;101707.34;5000457;28;20042;-79
2021/12/23 03:31:11;;;;;;;34.97;20.77;;;;;;;-3.15;100.00;101713.66;5010555;28;20691;-79
2021/12/23 03:33:39;;;;;;;39.40;21.77;;;;;;;-3.29;100.00;101707.91;4980940;28;20053;-79
2021/12/23 03:36:07;;;;;;;36.10;22.23;;;;;;;-3.42;100.00;101713.69;5000173;28;20045;-79
2021/12/23 03:38:35;;;;;;;40.58;21.45;;;;;;;-3.45;100.00;101707.81;5014174;28;20049;-79
2021/12/23 03:41:03;;;;;;;39.35;23.20;;;;;;;-3.43;100.00;101703.97;5003822;28;20057;-79
2021/12/23 03:43:33;;;;;;;36.65;22.27;;;;;;;-3.48;100.00;101702.78;4996818;28;20519;-80
2021/12/23 03:46:02;;;;;;;40.72;22.75;;;;;;;-3.42;100.00;101696.81;5003289;28;20050;-80
2021/12/23 03:48:30;;;;;;;42.83;23.27;;;;;;;-3.57;100.00;101705.41;4999824;28;20046;-80
2021/12/23 03:50:59;;;;;;;44.65;24.75;;;;;;;-3.45;100.00;101708.66;4995184;28;20038;-78
2021/12/23 03:53:27;;;;;;;59.53;25.15;;;;;;;-3.16;100.00;101702.13;4994695;28;20477;-78
2021/12/23 03:55:54;;;;;;;50.53;24.55;;;;;;;-3.21;100.00;101700.91;5013799;28;20053;-78
2021/12/23 03:58:22;;;;;;;39.35;22.48;;;;;;;-3.30;100.00;101698.19;5001238;28;20512;-78
2021/12/23 04:00:51;;;;;;;39.15;21.05;;;;;;;-3.53;100.00;101685.38;4985936;28;20042;-78
2021/12/23 04:03:19;;;;;;;42.50;21.95;;;;;;;-3.55;100.00;101694.53;4996149;28;20050;-78
2021/12/23 04:05:47;;;;;;;45.33;24.02;;;;;;;-3.47;100.00;101693.75;5001604;28;20504;-78
2021/12/23 04:08:15;;;;;;;45.08;24.20;;;;;;;-3.52;100.00;101691.56;5004913;28;20060;-78
2021/12/23 04:10:43;;;;;;;45.65;23.42;;;;;;;-3.47;100.00;101683.06;5008528;28;20046;-78
2021/12/23 04:13:12;;;;;;;43.47;22.08;;;;;;;-3.36;100.00;101682.78;5011946;28;20053;-78
2021/12/23 04:15:40;;;;;;;39.63;24.00;;;;;;;-3.17;100.00;101683.53;5012011;28;20050;-78
2021/12/23 04:18:07;;;;;;;50.70;22.90;;;;;;;-3.25;100.00;101679.81;5011580;28;20061;-78
2021/12/23 04:20:46;;;;;;;44.97;24.05;;;;;;;-3.33;100.00;101682.44;5000543;28;20066;-81
2021/12/23 04:23:14;;;;;;;39.63;22.38;;;;;;;-3.38;100.00;101679.41;4996617;28;20046;-79
2021/12/23 04:25:42;;;;;;;42.20;23.50;;;;;;;-3.41;100.00;101679.75;5005855;28;20046;-79
2021/12/23 04:28:10;;;;;;;49.17;24.00;;;;;;;-3.42;100.00;101678.06;5008576;28;20053;-79
2021/12/23 04:30:37;;;;;;;39.92;23.30;;;;;;;-3.11;100.00;101674.84;5002834;28;20059;-79
2021/12/23 04:33:06;;;;;;;48.28;25.92;;;;;;;-3.06;100.00;101671.66;4991311;28;20065;-80
2021/12/23 04:35:34;;;;;;;40.95;23.17;;;;;;;-3.22;100.00;101675.97;4992469;28;20053;-80
2021/12/23 04:38:03;;;;;;;42.97;24.23;;;;;;;-3.24;100.00;101684.16;4992299;28;20038;-80
2021/12/23 04:40:34;;;;;;;44.30;24.00;;;;;;;-3.04;100.00;101677.72;4981224;28;20049;-80
2021/12/23 04:43:04;;;;;;;43.58;25.13;;;;;;;-2.84;100.00;101672.91;4992355;28;20508;-80
2021/12/23 04:45:33;;;;;;;44.88;24.67;;;;;;;-2.77;100.00;101671.28;4992527;28;20038;-81
2021/12/23 04:48:01;;;;;;;46.35;25.70;;;;;;;-2.77;100.00;101667.75;4994250;28;20050;-78
2021/12/23 04:50:29;;;;;;;44.75;23.88;;;;;;;-2.88;100.00;101663.53;4995458;28;20061;-78
2021/12/23 04:52:57;;;;;;;50.85;23.85;;;;;;;-2.99;100.00;101668.19;4995801;28;20050;-78
2021/12/23 04:55:25;;;;;;;43.60;24.10;;;;;;;-3.04;100.00;101665.16;4994124;28;20042;-78
2021/12/23 04:57:53;;;;;;;42.42;22.95;;;;;;;-3.05;100.00;101663.47;4996052;28;20058;-80
2021/12/23 05:00:22;;;;;;;42.10;21.55;;;;;;;-3.03;100.00;101657.97;5003529;28;20054;-80
2021/12/23 05:02:53;;;;;;;36.63;20.60;;;;;;;-2.98;100.00;101666.38;5009513;28;20038;-81
2021/12/23 05:05:21;;;;;;;38.75;22.23;;;;;;;-2.86;100.00;101658.84;5014752;28;20050;-80
2021/12/23 05:07:49;;;;;;;40.78;22.27;;;;;;;-2.77;100.00;101649.84;5003079;28;20405;-80
2021/12/23 05:10:18;;;;;;;37.25;22.67;;;;;;;-2.81;100.00;101651.16;5014274;28;20444;-80
2021/12/23 05:12:47;;;;;;;38.30;22.30;;;;;;;-2.78;100.00;101656.19;5006976;28;20462;-80
2021/12/23 05:15:17;;;;;;;40.00;23.73;;;;;;;-2.82;100.00;101644.13;5012281;28;20053;-80
2021/12/23 05:17:46;;;;;;;36.28;22.02;;;;;;;-2.91;100.00;101650.44;5005715;28;20508;-80
2021/12/23 05:20:17;;;;;;;38.13;21.73;;;;;;;-2.92;100.00;101651.47;5012869;28;20046;-81
2021/12/23 05:22:46;;;;;;;37.25;22.60;;;;;;;-2.97;100.00;101657.31;5014719;28;20050;-80
2021/12/23 05:25:14;;;;;;;38.72;23.35;;;;;;;-2.86;100.00;101648.97;5014759;28;20046;-80
2021/12/23 05:27:44;;;;;;;43.47;23.05;;;;;;;-2.87;100.00;101647.31;5003523;28;20050;-80
2021/12/23 05:30:16;;;;;;;37.83;21.98;;;;;;;-2.86;100.00;101648.97;5008228;28;20057;-80
2021/12/23 05:32:45;;;;;;;40.90;23.02;;;;;;;-2.79;100.00;101651.81;4995064;28;20058;-80
2021/12/23 05:35:15;;;;;;;39.25;22.70;;;;;;;-2.83;100.00;101661.22;4994023;28;20046;-80
2021/12/23 05:37:44;;;;;;;41.70;22.85;;;;;;;-2.93;100.00;101661.31;4985148;28;20569;-81
2021/12/23 05:40:15;;;;;;;38.33;21.27;;;;;;;-2.97;100.00;101658.13;4993466;28;20049;-80
2021/12/23 05:42:44;;;;;;;37.55;21.85;;;;;;;-2.91;100.00;101655.81;4990407;28;20517;-80
2021/12/23 05:45:13;;;;;;;36.90;20.75;;;;;;;-2.97;100.00;101655.47;4993043;28;20519;-80
2021/12/23 05:47:42;;;;;;;37.10;20.48;;;;;;;-3.04;100.00;101651.75;4994689;28;20050;-81
2021/12/23 05:50:11;;;;;;;39.15;20.83;;;;;;;-3.09;100.00;101654.09;4992665;28;20393;-80
2021/12/23 05:52:39;;;;;;;36.38;20.92;;;;;;;-3.17;100.00;101657.56;4986674;28;20424;-80
2021/12/23 05:55:09;;;;;;;34.60;20.30;;;;;;;-3.21;100.00;101655.38;4994208;28;20065;-80
2021/12/23 05:57:38;;;;;;;39.83;20.95;;;;;;;-3.19;100.00;101658.75;4993354;28;20072;-80
2021/12/23 06:00:10;;;;;;;38.60;21.67;;;;;;;-3.13;100.00;101653.56;4994456;28;20058;-80
2021/12/23 06:02:38;;;;;;;42.78;20.38;;;;;;;-3.11;100.00;101656.94;4991391;28;20054;-80
2021/12/23 06:05:08;;;;;;;37.65;21.60;;;;;;;-3.12;100.00;101660.59;4992991;28;20054;-80
2021/12/23 06:07:36;;;;;;;37.58;21.50;;;;;;;-3.04;100.00;101661.66;4994307;28;20050;-81
2021/12/23 06:10:05;;;;;;;40.20;22.27;;;;;;;-2.97;100.00;101655.47;5009794;28;20049;-77
2021/12/23 06:12:34;;;;;;;41.72;21.00;;;;;;;-2.89;100.00;101659.19;5004606;28;20039;-77
2021/12/23 06:15:03;;;;;;;47.08;26.88;;;;;;;-3.03;100.00;101657.97;4992385;28;20046;-79
2021/12/23 06:17:31;;;;;;;46.05;25.45;;;;;;;-3.08;100.00;101650.41;4999245;28;20049;-81
2021/12/23 06:19:59;;;;;;;46.55;24.63;;;;;;;-3.10;100.00;101652.41;4993703;28;20046;-77
2021/12/23 06:22:27;;;;;;;50.67;25.13;;;;;;;-3.13;100.00;101660.78;5005314;28;20057;-78
2021/12/23 06:24:55;;;;;;;41.92;26.20;;;;;;;-3.12;100.00;101654.44;5001113;28;20055;-78
2021/12/23 06:27:23;;;;;;;94.57;44.17;;;;;;;-3.12;100.00;101654.44;4986551;28;20398;-79
2021/12/23 06:29:51;;;;;;;66.13;32.50;;;;;;;-2.76;100.00;101647.97;4992829;28;20061;-78
2021/12/23 06:32:19;;;;;;;64.93;35.22;;;;;;;-2.71;100.00;101651.84;4974849;28;20046;-80
2021/12/23 06:34:47;;;;;;;53.58;27.17;;;;;;;-2.72;100.00;101654.69;4992844;28;20050;-78
2021/12/23 06:37:19;;;;;;;48.38;25.88;;;;;;;-2.73;100.00;101653.84;4976077;28;20057;-80
2021/12/23 06:39:47;;;;;;;44.10;24.50;;;;;;;-2.74;100.00;101651.34;4992007;28;20050;-79
2021/12/23 06:42:16;;;;;;;43.80;22.25;;;;;;;-2.65;100.00;101636.13;4989174;28;20057;-75
2021/12/23 06:44:44;;;;;;;46.17;24.33;;;;;;;-2.67;100.00;101638.97;4990779;28;20073;-77
2021/12/23 06:47:13;;;;;;;42.05;23.05;;;;;;;-2.61;100.00;101634.75;4991585;28;20050;-77
2021/12/23 06:49:41;;;;;;;49.60;24.52;;;;;;;-2.55;100.00;101639.47;4993103;28;20053;-77
2021/12/23 06:52:10;;;;;;;40.63;21.77;;;;;;;-2.48;100.00;101637.81;4992652;28;20047;-77
2021/12/23 06:54:42;;;;;;;42.30;22.83;;;;;;;-2.33;100.00;101637.13;4992516;28;20058;-77
2021/12/23 06:57:10;;;;;;;43.88;21.60;;;;;;;-2.34;100.00;101625.56;4992312;28;20401;-79
2021/12/23 06:59:39;;;;;;;44.78;22.50;;;;;;;-2.36;100.00;101621.38;4985889;28;20050;-78
2021/12/23 07:02:07;;;;;;;40.45;21.70;;;;;;;-2.40;100.00;101630.78;5000929;28;20054;-77
2021/12/23 07:04:39;;;;;;;39.63;22.17;;;;;;;-2.42;100.00;101622.88;5009151;28;20065;-78
2021/12/23 07:07:09;;;;;;;37.35;21.85;;;;;;;-2.39;100.00;101633.28;5002567;28;20401;-78
2021/12/23 07:09:45;;;;;;;37.47;21.98;;;;;;;-2.44;100.00;101633.78;5004705;28;20054;-76
2021/12/23 07:12:13;;;;;;;40.03;20.67;;;;;;;-2.33;100.00;101626.41;4997461;28;20061;-76
2021/12/23 07:14:41;;;;;;;38.53;21.35;;;;;;;-2.30;100.00;101628.75;5012335;28;20820;-78
2021/12/23 07:17:09;;;;;;;38.58;22.10;;;;;;;-2.27;100.00;101639.13;5004643;28;20057;-76
2021/12/23 07:19:37;;;;;;;41.92;23.17;;;;;;;-2.12;100.00;101638.44;4990874;28;20053;-76
2021/12/23 07:22:05;;;;;;;42.85;20.98;;;;;;;-2.21;100.00;101625.06;4990166;28;20061;-76
2021/12/23 07:24:34;;;;;;;38.25;21.15;;;;;;;-2.22;100.00;101617.19;4990719;28;20054;-75
2021/12/23 07:27:02;;;;;;;40.97;21.50;;;;;;;-2.35;100.00;101617.72;4991070;28;20042;-76
2021/12/23 07:29:30;;;;;;;39.67;21.30;;;;;;;-2.38;100.00;101618.03;4990571;28;20042;-75
2021/12/23 07:31:59;;;;;;;43.60;23.02;;;;;;;-2.31;100.00;101613.66;4989804;28;20053;-77
2021/12/23 07:34:27;;;;;;;39.85;20.65;;;;;;;-2.20;100.00;101621.38;4987561;28;20126;-78
2021/12/23 07:36:55;;;;;;;38.47;21.42;;;;;;;-2.09;100.00;101619.34;4990118;28;20043;-78
2021/12/23 07:39:23;;;;;;;39.15;21.15;;;;;;;-1.96;100.00;101611.59;4990324;28;20055;-78
2021/12/23 07:42:15;;;;;;;45.95;22.67;;;;;;;-1.78;100.00;101616.78;4994933;28;20490;-79
2021/12/23 07:44:44;;;;;;;38.55;20.60;;;;;;;-1.80;100.00;101609.91;4995492;28;20050;-79
2021/12/23 07:47:14;;;;;;;38.08;22.13;;;;;;;-1.76;100.00;101611.25;5005209;28;20171;-79
2021/12/23 07:49:42;;;;;;;38.13;20.77;;;;;;;-1.57;100.00;101606.47;4997097;28;20045;-79
2021/12/23 07:52:10;;;;;;;41.92;22.60;;;;;;;-1.52;100.00;101602.25;5011971;28;20054;-78
2021/12/23 07:54:38;;;;;;;38.13;22.15;;;;;;;-1.54;100.00;101606.13;5012144;28;20041;-78
2021/12/23 07:57:07;;;;;;;50.42;21.55;;;;;;;-1.41;100.00;101609.06;5012364;28;20058;-78
2021/12/23 07:59:35;;;;;;;43.88;22.27;;;;;;;-1.38;100.00;101595.31;5012986;28;20057;-79
2021/12/23 08:02:03;;;;;;;41.47;22.95;;;;;;;-1.43;100.00;101594.19;5001222;28;20046;-77
2021/12/23 08:04:33;;;;;;;39.65;22.40;;;;;;;-1.49;100.00;101601.91;5010359;28;20046;-78
2021/12/23 08:07:02;;;;;;;40.15;21.77;;;;;;;-1.42;100.00;101596.66;5012597;28;20050;-78
2021/12/23 08:09:30;;;;;;;42.08;21.92;;;;;;;-1.41;100.00;101605.56;5008825;28;20046;-78
2021/12/23 08:12:05;;;;;;;40.28;21.25;;;;;;;-1.27;100.00;101593.25;5002496;28;20045;-78
2021/12/23 08:14:33;;;;;;;39.75;21.40;;;;;;;-1.13;100.00;101595.19;5013725;28;20057;-78
2021/12/23 08:17:14;;;;;;;42.13;21.90;;;;;;;-0.76;100.00;101600.00;5012785;28;20053;-79
2021/12/23 08:19:42;;;;;;;38.70;21.88;;;;;;;-0.74;100.00;101608.72;5012923;28;20061;-79
2021/12/23 08:22:10;;;;;;;44.63;21.23;;;;;;;-0.92;100.00;101606.31;5018251;28;20068;-78
2021/12/23 08:24:38;;;;;;;37.45;22.08;;;;;;;-0.97;100.00;101605.00;5001267;28;20054;-78
2021/12/23 08:27:08;;;;;;;41.85;22.77;;;;;;;-1.03;100.00;101600.31;5015775;28;20108;-77
2021/12/23 08:29:37;;;;;;;39.92;22.23;;;;;;;-0.98;100.00;101605.19;5015280;28;20521;-78
2021/12/23 08:32:06;;;;;;;55.45;26.92;;;;;;;-0.94;100.00;101603.81;4996203;28;20493;-78
2021/12/23 08:34:36;;;;;;;41.25;22.98;;;;;;;-0.69;100.00;101600.94;4996260;28;20058;-78
2021/12/23 08:37:06;;;;;;;56.38;26.38;;;;;;;-0.70;100.00;101594.75;4994944;28;20054;-78
2021/12/23 08:39:34;;;;;;;46.08;24.40;;;;;;;-0.51;100.00;101579.13;4995758;28;20054;-79
2021/12/23 08:42:02;;;;;;;56.65;24.77;;;;;;;-0.64;100.00;101586.97;4995610;28;20050;-78
2021/12/23 08:44:30;;;;;;;45.50;23.85;;;;;;;-0.49;100.00;101595.09;4995298;28;20477;-79
2021/12/23 08:46:58;;;;;;;58.55;23.48;;;;;;;-0.42;100.00;101602.25;4995497;28;20050;-77
2021/12/23 08:49:27;;;;;;;45.33;24.15;;;;;;;-0.44;100.00;101606.16;4995283;28;20043;-79
2021/12/23 08:51:55;;;;;;;49.50;25.50;;;;;;;-0.40;100.00;101607.44;4998323;28;20053;-79
2021/12/23 08:54:24;;;;;;;76.32;32.70;;;;;;;-0.39;100.00;101600.22;5015431;28;20049;-79
2021/12/23 08:56:52;;;;;;;55.58;26.80;;;;;;;-0.64;100.00;101603.94;5014773;28;20057;-79
2021/12/23 08:59:20;;;;;;;46.33;25.10;;;;;;;-0.77;100.00;101592.94;5015227;28;20053;-79
2021/12/23 09:01:48;;;;;;;42.78;23.70;;;;;;;-0.67;100.00;101588.19;5014592;28;20037;-79
2021/12/23 09:04:17;;;;;;;39.63;22.08;;;;;;;-0.56;100.00;101600.34;5015089;28;20396;-79
2021/12/23 09:06:45;;;;;;;41.42;23.10;;;;;;;-0.51;100.00;101589.88;5014669;28;20061;-78
2021/12/23 09:09:13;;;;;;;41.13;22.92;;;;;;;-0.68;100.00;101578.44;5014245;28;20415;-78
2021/12/23 09:11:41;;;;;;;41.70;22.20;;;;;;;-0.65;100.00;101586.13;5014891;28;20050;-78
2021/12/23 09:14:09;;;;;;;45.65;24.13;;;;;;;-0.72;100.00;101604.00;5013977;28;20385;-78
2021/12/23 09:16:38;;;;;;;45.70;22.52;;;;;;;-0.67;100.00;101604.31;5014314;28;20041;-78
2021/12/23 09:19:06;;;;;;;38.08;23.95;;;;;;;-0.53;100.00;101607.22;5013586;28;20050;-78
2021/12/23 09:21:36;;;;;;;44.22;23.13;;;;;;;-0.52;100.00;101604.34;5014606;28;20045;-78
2021/12/23 09:24:04;;;;;;;40.55;21.60;;;;;;;-0.59;100.00;101596.16;5014528;28;20057;-78
2021/12/23 09:26:37;;;;;;;44.42;23.92;;;;;;;-0.59;100.00;101598.03;5014372;28;20065;-79
2021/12/23 09:34:45;;;;;;;43.70;22.88;;;;;;;-0.21;100.00;101597.19;4993366;28;20061;-79
2021/12/23 09:37:14;;;;;;;44.03;24.42;;;;;;;0.09;100.00;101599.91;4994940;28;20122;-79
2021/12/23 09:39:44;;;;;;;41.65;23.27;;;;;;;0.34;100.00;101594.28;4994638;28;20401;-80
2021/12/23 09:42:13;;;;;;;44.17;23.92;;;;;;;0.38;100.00;101595.56;4994605;28;20065;-79
2021/12/23 09:44:41;;;;;;;46.03;24.05;;;;;;;0.53;100.00;101588.31;4994483;28;20409;-78
2021/12/23 09:47:09;;;;;;;40.83;22.98;;;;;;;0.44;100.00;101584.03;4994075;28;20050;-79
2021/12/23 09:49:37;;;;;;;42.88;22.88;;;;;;;0.35;100.00;101590.56;5004164;28;20038;-79
2021/12/23 09:52:07;;;;;;;40.45;21.88;;;;;;;0.28;100.00;101584.25;5013961;28;20045;-79
2021/12/23 09:54:41;;;;;;;42.17;22.17;;;;;;;0.35;100.00;101593.25;4986312;28;20042;-79
2021/12/23 09:57:09;;;;;;;39.40;21.55;;;;;;;0.34;100.00;101595.09;5013239;28;20042;-79
2021/12/23 09:59:40;;;;;;;40.75;22.13;;;;;;;0.32;100.00;101591.75;5013391;28;20046;-79
2021/12/23 10:02:09;;;;;;;40.47;23.05;;;;;;;0.57;100.00;101596.00;5013964;28;20065;-79
2021/12/23 10:04:37;;;;;;;39.85;22.02;;;;;;;0.85;100.00;101584.53;5013366;28;20045;-79
2021/12/23 10:07:06;;;;;;;41.92;22.52;;;;;;;0.76;100.00;101587.34;5013236;28;20056;-80
2021/12/23 10:38:16;;;;;;;43.90;21.27;;;;;;;0.45;100.00;101558.78;4993517;28;20053;-79
2021/12/23 10:40:47;;;;;;;45.05;21.77;;;;;;;0.55;100.00;101565.72;5012081;28;20042;-79
2021/12/23 10:43:22;;;;;;;41.58;22.90;;;;;;;0.59;100.00;101553.56;5013224;28;20069;-79
2021/12/23 10:45:58;;;;;;;42.80;21.90;;;;;;;0.86;100.00;101561.94;5013049;28;20049;-79
2021/12/23 10:48:30;;;;;;;45.47;22.85;;;;;;;0.83;100.00;101565.03;5012771;28;20382;-79
2021/12/23 10:51:08;;;;;;;40.95;21.80;;;;;;;0.71;100.00;101568.22;5013046;28;20061;-80
2021/12/23 10:53:47;;;;;;;43.67;22.75;;;;;;;0.66;100.00;101549.06;5013417;28;20052;-79
2021/12/23 10:59:18;;;;;;;40.30;21.67;;;;;;;0.55;100.00;101542.34;5011976;28;20057;-79
2021/12/23 11:02:04;;;;;;;42.53;21.77;;;;;;;0.65;100.00;101552.81;5012850;28;20045;-81
2021/12/23 11:04:51;;;;;;;48.33;22.75;;;;;;;0.75;100.00;101541.72;5012553;28;20061;-79
2021/12/23 11:07:27;;;;;;;49.30;24.27;;;;;;;0.72;100.00;101526.75;5012555;28;20527;-79
2021/12/23 11:10:14;;;;;;;49.33;25.88;;;;;;;0.80;100.00;101529.31;5011865;28;20049;-80
2021/12/23 11:39:03;;;;;;;44.00;23.63;;;;;;;1.45;100.00;101504.22;4991912;28;20461;-79
2021/12/23 11:43:56;;;;;;;46.15;25.10;;;;;;;1.90;100.00;101486.03;4992039;28;20050;-79
2021/12/23 11:46:45;;;;;;;44.92;23.67;;;;;;;1.87;100.00;101481.84;4991664;28;20413;-78
2021/12/23 11:49:14;;;;;;;46.17;24.52;;;;;;;1.99;100.00;101480.25;4992162;28;20051;-79
2021/12/23 11:51:53;;;;;;;46.67;24.08;;;;;;;2.55;96.19;101472.16;4991996;28;20053;-79
2021/12/23 11:54:32;;;;;;;43.55;24.23;;;;;;;2.38;95.95;101472.50;4991826;28;20050;-78
2021/12/23 11:57:11;;;;;;;42.47;22.58;;;;;;;2.21;97.60;101466.66;4991480;28;20069;-78
2021/12/23 11:59:41;;;;;;;51.33;23.13;;;;;;;2.24;98.17;101468.09;4991860;28;20489;-78
2021/12/23 12:02:19;;;;;;;42.08;24.40;;;;;;;2.64;97.06;101457.41;4991032;28;21015;-78
2021/12/23 12:04:49;;;;;;;43.05;23.30;;;;;;;2.92;96.83;101461.81;4992201;28;20042;-79
2021/12/23 12:07:18;;;;;;;45.25;23.58;;;;;;;3.48;91.37;101457.00;4989743;28;20065;-78
2021/12/23 12:10:06;;;;;;;42.92;21.92;;;;;;;3.94;88.14;101457.09;4991738;28;20390;-79
2021/12/23 12:12:54;;;;;;;39.15;23.30;;;;;;;3.84;87.65;101454.00;4992188;28;20042;-79
2021/12/23 12:15:42;;;;;;;42.83;23.48;;;;;;;3.22;90.38;101450.56;4991806;28;20054;-78
2021/12/23 12:18:12;;;;;;;37.75;22.65;;;;;;;3.27;91.26;101449.94;4980890;28;20073;-78
2021/12/23 12:20:54;;;;;;;44.25;24.42;;;;;;;3.19;91.96;101434.75;4991175;28;20046;-78
2021/12/23 12:23:30;;;;;;;41.92;23.60;;;;;;;3.07;92.40;101425.59;4991979;28;20058;-78
2021/12/23 12:26:03;;;;;;;44.13;23.75;;;;;;;3.30;92.46;101422.47;4991859;28;20486;-78
2021/12/23 12:28:53;;;;;;;49.15;26.48;;;;;;;2.99;94.08;101423.97;4991844;28;20489;-78
2021/12/23 12:31:23;;;;;;;42.05;23.60;;;;;;;2.93;95.06;101422.09;4991672;28;20085;-78